RA1347G USNN-ZZZZ
Flight info
| Callsign | RA1347G |
|---|---|
| Flight time | N/A |
| Altitude | 3000 |
| Route | OKRIN DCT GIROP DCT 6106N08015E/LARYAK |
| Aircraft | C172/L-SFG/C |
Departure
| Time | 2026-04-14 14:09 |
|---|---|
| Airport | Nizhnevartovsk Airport (USNN) |
Arrival
| Time | N/A |
|---|---|
| Airport | ZZZZ |
| Time | Latitude | Longitude | Altitude | Speed | Heading |
|---|---|---|---|---|---|
| 2026-04-14 14:01 | 60.95430 | 76.49764 | -3 ft | 0 kts | 131° |
| 2026-04-14 14:02 | 60.95429 | 76.49766 | -3 ft | 1 kts | 128° |
| 2026-04-14 14:05 | 60.95417 | 76.49792 | -3 ft | 6 kts | 137° |
| 2026-04-14 14:05 | 60.95381 | 76.49776 | -3 ft | 6 kts | 223° |
| 2026-04-14 14:05 | 60.95361 | 76.49737 | -3 ft | 1 kts | 223° |
| 2026-04-14 14:05 | 60.95360 | 76.49734 | -3 ft | 0 kts | 223° |
| 2026-04-14 14:06 | 60.95349 | 76.49713 | -3 ft | 3 kts | 222° |
| 2026-04-14 14:06 | 60.95337 | 76.49667 | -3 ft | 3 kts | 277° |
| 2026-04-14 14:06 | 60.95346 | 76.49633 | -3 ft | 1 kts | 312° |
| 2026-04-14 14:06 | 60.95358 | 76.49601 | -3 ft | 4 kts | 310° |
| 2026-04-14 14:07 | 60.95375 | 76.49568 | -3 ft | 2 kts | 320° |
| 2026-04-14 14:07 | 60.95390 | 76.49531 | -3 ft | 2 kts | 307° |
| 2026-04-14 14:07 | 60.95410 | 76.49477 | -3 ft | 6 kts | 311° |
| 2026-04-14 14:07 | 60.95441 | 76.49410 | -3 ft | 6 kts | 311° |
| 2026-04-14 14:08 | 60.95474 | 76.49335 | -3 ft | 10 kts | 311° |
| 2026-04-14 14:08 | 60.95548 | 76.49352 | -3 ft | 28 kts | 39° |
| 2026-04-14 14:08 | 60.95824 | 76.49880 | 73 ft | 69 kts | 36° |
| 2026-04-14 14:08 | 60.96211 | 76.50528 | 314 ft | 75 kts | 33° |
| 2026-04-14 14:09 | 60.96624 | 76.51191 | 587 ft | 76 kts | 31° |
| 2026-04-14 14:09 | 60.97042 | 76.51845 | 850 ft | 76 kts | 32° |
| 2026-04-14 14:09 | 60.97309 | 76.52818 | 1109 ft | 83 kts | 66° |
| 2026-04-14 14:09 | 60.97340 | 76.53109 | 1175 ft | 83 kts | 68° |
| 2026-04-14 14:10 | 60.97415 | 76.54041 | 1405 ft | 82 kts | 70° |
| 2026-04-14 14:10 | 60.97483 | 76.55190 | 1692 ft | 79 kts | 70° |
| 2026-04-14 14:10 | 60.97535 | 76.56291 | 1977 ft | 77 kts | 70° |
| 2026-04-14 14:10 | 60.97580 | 76.57357 | 2258 ft | 74 kts | 70° |
| 2026-04-14 14:11 | 60.97622 | 76.58415 | 2524 ft | 74 kts | 70° |
| 2026-04-14 14:11 | 60.97660 | 76.59454 | 2780 ft | 74 kts | 70° |
| 2026-04-14 14:11 | 60.97699 | 76.60523 | 2986 ft | 79 kts | 71° |
| 2026-04-14 14:11 | 60.97746 | 76.61806 | 3017 ft | 100 kts | 76° |
| 2026-04-14 14:12 | 60.97780 | 76.63316 | 3014 ft | 107 kts | 78° |
| 2026-04-14 14:12 | 60.97807 | 76.64845 | 3012 ft | 106 kts | 78° |
| 2026-04-14 14:12 | 60.97839 | 76.66360 | 3012 ft | 105 kts | 78° |
| 2026-04-14 14:12 | 60.97876 | 76.67870 | 3012 ft | 104 kts | 78° |
| 2026-04-14 14:13 | 60.97914 | 76.69362 | 3012 ft | 104 kts | 78° |
| 2026-04-14 14:13 | 60.97953 | 76.70841 | 3012 ft | 103 kts | 78° |
| 2026-04-14 14:13 | 60.97992 | 76.72317 | 3012 ft | 103 kts | 77° |
| 2026-04-14 14:13 | 60.98031 | 76.73790 | 3012 ft | 103 kts | 77° |
| 2026-04-14 14:14 | 60.98070 | 76.75270 | 3012 ft | 103 kts | 77° |
| 2026-04-14 14:14 | 60.98110 | 76.76751 | 3012 ft | 103 kts | 78° |
| 2026-04-14 14:14 | 60.98148 | 76.78220 | 3012 ft | 103 kts | 77° |
| 2026-04-14 14:14 | 60.98187 | 76.79692 | 3012 ft | 103 kts | 77° |
| 2026-04-14 14:15 | 60.98226 | 76.81171 | 3012 ft | 103 kts | 78° |
| 2026-04-14 14:15 | 60.98264 | 76.82652 | 3012 ft | 103 kts | 78° |
| 2026-04-14 14:15 | 60.98302 | 76.84131 | 3012 ft | 103 kts | 77° |
| 2026-04-14 14:15 | 60.98341 | 76.85607 | 3012 ft | 103 kts | 77° |
| 2026-04-14 14:16 | 60.98379 | 76.87078 | 3012 ft | 103 kts | 77° |
| 2026-04-14 14:16 | 60.98499 | 76.88500 | 3010 ft | 96 kts | 56° |
| 2026-04-14 14:16 | 60.98825 | 76.89685 | 3012 ft | 96 kts | 53° |
| 2026-04-14 14:17 | 60.99413 | 76.92171 | 3011 ft | 100 kts | 69° |
| 2026-04-14 14:17 | 60.99500 | 76.93618 | 3011 ft | 103 kts | 78° |
| 2026-04-14 14:17 | 60.99470 | 76.95119 | 3011 ft | 106 kts | 88° |
| 2026-04-14 14:17 | 60.99368 | 76.96622 | 3011 ft | 106 kts | 88° |
| 2026-04-14 14:18 | 60.99259 | 76.98142 | 3011 ft | 106 kts | 89° |
| 2026-04-14 14:18 | 60.99162 | 76.99657 | 3011 ft | 106 kts | 88° |
| 2026-04-14 14:18 | 60.99066 | 77.01160 | 3011 ft | 106 kts | 88° |
| 2026-04-14 14:18 | 60.98970 | 77.02689 | 3011 ft | 106 kts | 88° |
| 2026-04-14 14:19 | 60.98864 | 77.04202 | 3011 ft | 106 kts | 88° |
| 2026-04-14 14:19 | 60.98848 | 77.05682 | 3011 ft | 103 kts | 78° |
| 2026-04-14 14:19 | 60.98880 | 77.07174 | 3011 ft | 103 kts | 78° |
| 2026-04-14 14:19 | 60.98914 | 77.08652 | 3010 ft | 100 kts | 78° |
| 2026-04-14 14:20 | 60.98944 | 77.10038 | 3009 ft | 95 kts | 77° |
| 2026-04-14 14:20 | 60.98976 | 77.11366 | 3010 ft | 92 kts | 76° |
| 2026-04-14 14:20 | 60.99009 | 77.12685 | 3010 ft | 90 kts | 76° |
| 2026-04-14 14:20 | 60.99040 | 77.13972 | 3010 ft | 89 kts | 76° |
| 2026-04-14 14:21 | 60.99072 | 77.15243 | 3011 ft | 88 kts | 76° |
| 2026-04-14 14:21 | 60.99103 | 77.16509 | 3010 ft | 87 kts | 76° |
| 2026-04-14 14:21 | 60.99133 | 77.17756 | 3011 ft | 87 kts | 76° |
| 2026-04-14 14:21 | 60.99165 | 77.19012 | 3012 ft | 90 kts | 76° |
| 2026-04-14 14:22 | 60.99197 | 77.20328 | 3012 ft | 92 kts | 76° |
| 2026-04-14 14:22 | 60.99228 | 77.21667 | 3012 ft | 94 kts | 77° |
| 2026-04-14 14:22 | 60.99258 | 77.23015 | 3012 ft | 95 kts | 77° |
| 2026-04-14 14:22 | 60.99289 | 77.24380 | 3011 ft | 95 kts | 77° |
| 2026-04-14 14:23 | 60.99319 | 77.25768 | 3011 ft | 96 kts | 77° |
| 2026-04-14 14:23 | 60.99350 | 77.27129 | 3012 ft | 96 kts | 77° |
| 2026-04-14 14:23 | 60.99381 | 77.28521 | 3011 ft | 96 kts | 77° |
| 2026-04-14 14:23 | 60.99411 | 77.29887 | 3011 ft | 96 kts | 77° |
| 2026-04-14 14:24 | 60.99442 | 77.31263 | 3011 ft | 96 kts | 77° |
| 2026-04-14 14:24 | 60.99473 | 77.32632 | 3012 ft | 96 kts | 77° |
| 2026-04-14 14:24 | 60.99503 | 77.34023 | 3012 ft | 96 kts | 77° |
| 2026-04-14 14:24 | 60.99534 | 77.35390 | 3012 ft | 96 kts | 77° |
| 2026-04-14 14:25 | 60.99564 | 77.36776 | 3012 ft | 96 kts | 77° |
| 2026-04-14 14:25 | 60.99591 | 77.38153 | 3011 ft | 97 kts | 80° |
| 2026-04-14 14:25 | 60.99479 | 77.39537 | 3010 ft | 95 kts | 77° |
| 2026-04-14 14:25 | 60.99592 | 77.40865 | 3012 ft | 93 kts | 69° |
| 2026-04-14 14:26 | 60.99714 | 77.42189 | 3012 ft | 93 kts | 70° |
| 2026-04-14 14:26 | 60.99815 | 77.43514 | 3012 ft | 94 kts | 71° |
| 2026-04-14 14:26 | 60.99904 | 77.44843 | 3012 ft | 94 kts | 72° |
| 2026-04-14 14:26 | 60.99985 | 77.46207 | 3012 ft | 95 kts | 73° |
| 2026-04-14 14:27 | 61.00056 | 77.47493 | 3012 ft | 95 kts | 73° |
| 2026-04-14 14:27 | 61.00131 | 77.48907 | 3012 ft | 95 kts | 73° |
| 2026-04-14 14:27 | 61.00202 | 77.50265 | 3012 ft | 95 kts | 73° |
| 2026-04-14 14:27 | 61.00271 | 77.51613 | 3012 ft | 95 kts | 73° |
| 2026-04-14 14:28 | 61.00341 | 77.52988 | 3012 ft | 95 kts | 73° |
| 2026-04-14 14:28 | 61.00411 | 77.54338 | 3012 ft | 95 kts | 73° |
| 2026-04-14 14:28 | 61.00480 | 77.55706 | 3012 ft | 95 kts | 73° |
| 2026-04-14 14:28 | 61.00550 | 77.57081 | 3012 ft | 95 kts | 73° |
| 2026-04-14 14:29 | 61.00619 | 77.58449 | 3011 ft | 95 kts | 73° |
| 2026-04-14 14:29 | 61.00688 | 77.59799 | 3012 ft | 95 kts | 73° |
| 2026-04-14 14:29 | 61.00758 | 77.61179 | 3012 ft | 95 kts | 73° |
| 2026-04-14 14:29 | 61.00825 | 77.62534 | 3011 ft | 95 kts | 73° |
| 2026-04-14 14:30 | 61.00894 | 77.63888 | 3011 ft | 95 kts | 73° |
| 2026-04-14 14:30 | 61.00962 | 77.65250 | 3011 ft | 95 kts | 74° |
| 2026-04-14 14:30 | 61.01030 | 77.66601 | 3011 ft | 95 kts | 74° |
| 2026-04-14 14:30 | 61.01098 | 77.67966 | 3011 ft | 95 kts | 74° |
| 2026-04-14 14:31 | 61.01166 | 77.69326 | 3011 ft | 95 kts | 74° |
| 2026-04-14 14:31 | 61.01234 | 77.70689 | 3011 ft | 95 kts | 74° |
| 2026-04-14 14:31 | 61.01302 | 77.72057 | 3011 ft | 95 kts | 74° |
| 2026-04-14 14:31 | 61.01370 | 77.73417 | 3011 ft | 95 kts | 74° |
| 2026-04-14 14:32 | 61.01438 | 77.74805 | 3010 ft | 95 kts | 75° |
| 2026-04-14 14:32 | 61.01506 | 77.76173 | 3010 ft | 95 kts | 74° |
| 2026-04-14 14:32 | 61.01572 | 77.77522 | 3011 ft | 95 kts | 75° |
| 2026-04-14 14:32 | 61.01640 | 77.78902 | 3010 ft | 95 kts | 74° |
| 2026-04-14 14:33 | 61.01706 | 77.80251 | 3010 ft | 95 kts | 74° |
| 2026-04-14 14:33 | 61.01773 | 77.81615 | 3011 ft | 95 kts | 74° |
| 2026-04-14 14:33 | 61.01840 | 77.82973 | 3010 ft | 95 kts | 74° |
| 2026-04-14 14:33 | 61.01907 | 77.84346 | 3011 ft | 95 kts | 75° |
| 2026-04-14 14:34 | 61.02039 | 77.87066 | 3011 ft | 95 kts | 74° |
| 2026-04-14 14:34 | 61.02105 | 77.88420 | 3011 ft | 95 kts | 74° |
| 2026-04-14 14:34 | 61.02173 | 77.89814 | 2989 ft | 97 kts | 75° |
| 2026-04-14 14:35 | 61.02238 | 77.91186 | 2983 ft | 96 kts | 75° |
| 2026-04-14 14:35 | 61.02305 | 77.92580 | 2983 ft | 96 kts | 75° |
| 2026-04-14 14:35 | 61.02349 | 77.93952 | 2983 ft | 97 kts | 81° |
| 2026-04-14 14:35 | 61.02375 | 77.95331 | 2983 ft | 96 kts | 76° |
| 2026-04-14 14:36 | 61.02425 | 77.96707 | 2983 ft | 95 kts | 75° |
| 2026-04-14 14:36 | 61.02480 | 77.98074 | 2983 ft | 95 kts | 75° |
| 2026-04-14 14:36 | 61.02534 | 77.99458 | 2983 ft | 95 kts | 75° |
| 2026-04-14 14:36 | 61.02586 | 78.00811 | 2983 ft | 95 kts | 75° |
| 2026-04-14 14:37 | 61.02640 | 78.02183 | 2983 ft | 95 kts | 75° |
| 2026-04-14 14:37 | 61.02697 | 78.03574 | 2984 ft | 95 kts | 75° |
| 2026-04-14 14:37 | 61.02752 | 78.04935 | 2984 ft | 95 kts | 75° |
| 2026-04-14 14:37 | 61.02810 | 78.06299 | 2984 ft | 95 kts | 74° |
| 2026-04-14 14:38 | 61.02876 | 78.07664 | 2984 ft | 95 kts | 74° |
| 2026-04-14 14:38 | 61.02942 | 78.09038 | 2984 ft | 95 kts | 74° |
| 2026-04-14 14:38 | 61.02980 | 78.09799 | 2984 ft | 95 kts | 74° |
| 2026-04-14 14:38 | 61.03048 | 78.11169 | 2985 ft | 95 kts | 74° |
| 2026-04-14 14:39 | 61.03115 | 78.12521 | 2985 ft | 95 kts | 74° |
| 2026-04-14 14:39 | 61.03182 | 78.13896 | 2984 ft | 95 kts | 74° |
| 2026-04-14 14:39 | 61.03249 | 78.15263 | 2985 ft | 95 kts | 74° |
| 2026-04-14 14:39 | 61.03313 | 78.16618 | 2985 ft | 95 kts | 74° |
| 2026-04-14 14:40 | 61.03379 | 78.17969 | 2985 ft | 95 kts | 74° |
| 2026-04-14 14:40 | 61.03445 | 78.19333 | 2985 ft | 95 kts | 74° |
| 2026-04-14 14:40 | 61.03513 | 78.20705 | 2985 ft | 95 kts | 74° |
| 2026-04-14 14:40 | 61.03581 | 78.22076 | 2985 ft | 95 kts | 74° |
| 2026-04-14 14:41 | 61.03647 | 78.23439 | 2986 ft | 95 kts | 74° |
| 2026-04-14 14:41 | 61.03715 | 78.24794 | 2986 ft | 95 kts | 74° |
| 2026-04-14 14:41 | 61.03783 | 78.26176 | 2986 ft | 95 kts | 74° |
| 2026-04-14 14:41 | 61.03851 | 78.27537 | 2986 ft | 95 kts | 74° |
| 2026-04-14 14:42 | 61.03917 | 78.28890 | 2986 ft | 95 kts | 74° |
| 2026-04-14 14:42 | 61.03983 | 78.30254 | 2985 ft | 95 kts | 74° |
| 2026-04-14 14:42 | 61.04052 | 78.31622 | 2985 ft | 95 kts | 74° |
| 2026-04-14 14:42 | 61.04118 | 78.32970 | 2985 ft | 95 kts | 74° |
| 2026-04-14 14:43 | 61.04189 | 78.34351 | 2985 ft | 95 kts | 74° |
| 2026-04-14 14:43 | 61.04256 | 78.35709 | 2985 ft | 95 kts | 73° |
| 2026-04-14 14:43 | 61.04324 | 78.37083 | 2985 ft | 95 kts | 73° |
| 2026-04-14 14:43 | 61.04393 | 78.38457 | 2985 ft | 95 kts | 73° |
| 2026-04-14 14:44 | 61.04461 | 78.39836 | 2985 ft | 95 kts | 74° |
| 2026-04-14 14:44 | 61.04529 | 78.41185 | 2985 ft | 95 kts | 73° |
| 2026-04-14 14:44 | 61.04599 | 78.42570 | 2985 ft | 95 kts | 73° |
| 2026-04-14 14:44 | 61.04668 | 78.43932 | 2985 ft | 95 kts | 73° |
| 2026-04-14 14:45 | 61.04736 | 78.45272 | 2985 ft | 95 kts | 73° |
| 2026-04-14 14:45 | 61.04803 | 78.46641 | 2985 ft | 95 kts | 73° |
| 2026-04-14 14:45 | 61.04872 | 78.48013 | 2985 ft | 95 kts | 73° |
| 2026-04-14 14:45 | 61.04939 | 78.49358 | 2985 ft | 95 kts | 73° |
| 2026-04-14 14:46 | 61.05007 | 78.50715 | 2985 ft | 95 kts | 73° |
| 2026-04-14 14:46 | 61.05076 | 78.52083 | 2985 ft | 95 kts | 73° |
| 2026-04-14 14:46 | 61.05144 | 78.53440 | 2985 ft | 95 kts | 73° |
| 2026-04-14 14:46 | 61.05214 | 78.54807 | 2985 ft | 95 kts | 73° |
| 2026-04-14 14:47 | 61.05284 | 78.56167 | 2985 ft | 95 kts | 73° |
| 2026-04-14 14:47 | 61.05354 | 78.57539 | 2985 ft | 95 kts | 73° |
| 2026-04-14 14:47 | 61.05424 | 78.58907 | 2985 ft | 95 kts | 73° |
| 2026-04-14 14:47 | 61.05493 | 78.60270 | 2984 ft | 95 kts | 73° |
| 2026-04-14 14:48 | 61.05552 | 78.61638 | 3004 ft | 94 kts | 75° |
| 2026-04-14 14:48 | 61.05597 | 78.62989 | 3011 ft | 94 kts | 75° |
| 2026-04-14 14:48 | 61.05642 | 78.64354 | 3012 ft | 95 kts | 75° |
| 2026-04-14 14:48 | 61.05685 | 78.65720 | 3012 ft | 95 kts | 76° |
| 2026-04-14 14:49 | 61.05728 | 78.67087 | 3012 ft | 95 kts | 76° |
| 2026-04-14 14:49 | 61.05774 | 78.68452 | 3012 ft | 95 kts | 76° |
| 2026-04-14 14:49 | 61.05819 | 78.69828 | 3012 ft | 96 kts | 76° |
| 2026-04-14 14:49 | 61.05864 | 78.71211 | 3012 ft | 96 kts | 76° |
| 2026-04-14 14:50 | 61.05910 | 78.72583 | 3011 ft | 96 kts | 76° |
| 2026-04-14 14:50 | 61.05957 | 78.73965 | 3012 ft | 96 kts | 76° |
| 2026-04-14 14:50 | 61.06002 | 78.75323 | 3011 ft | 96 kts | 76° |
| 2026-04-14 14:50 | 61.06049 | 78.76707 | 3011 ft | 96 kts | 76° |
| 2026-04-14 14:51 | 61.06096 | 78.78104 | 3011 ft | 96 kts | 76° |
| 2026-04-14 14:51 | 61.06143 | 78.79496 | 3011 ft | 96 kts | 76° |
| 2026-04-14 14:51 | 61.06190 | 78.80871 | 3011 ft | 96 kts | 76° |
| 2026-04-14 14:51 | 61.06237 | 78.82246 | 3011 ft | 96 kts | 76° |
| 2026-04-14 14:52 | 61.06283 | 78.83627 | 3010 ft | 96 kts | 76° |
| 2026-04-14 14:52 | 61.06329 | 78.85002 | 3010 ft | 96 kts | 76° |
| 2026-04-14 14:52 | 61.06377 | 78.86386 | 3010 ft | 96 kts | 76° |
| 2026-04-14 14:52 | 61.06423 | 78.87761 | 3010 ft | 96 kts | 76° |
| 2026-04-14 14:53 | 61.06471 | 78.89153 | 3010 ft | 96 kts | 76° |
| 2026-04-14 14:53 | 61.06518 | 78.90542 | 3010 ft | 96 kts | 76° |
| 2026-04-14 14:53 | 61.06565 | 78.91930 | 3010 ft | 96 kts | 76° |
| 2026-04-14 14:53 | 61.06612 | 78.93323 | 3009 ft | 95 kts | 76° |
| 2026-04-14 14:54 | 61.06661 | 78.94694 | 3009 ft | 95 kts | 76° |
| 2026-04-14 14:54 | 61.06708 | 78.96080 | 3009 ft | 95 kts | 76° |
| 2026-04-14 14:54 | 61.06756 | 78.97452 | 3009 ft | 95 kts | 76° |
| 2026-04-14 14:54 | 61.06805 | 78.98854 | 3009 ft | 95 kts | 76° |
| 2026-04-14 14:55 | 61.06852 | 79.00223 | 3009 ft | 95 kts | 76° |
| 2026-04-14 14:55 | 61.06900 | 79.01603 | 3010 ft | 96 kts | 76° |
| 2026-04-14 14:55 | 61.06949 | 79.02986 | 3010 ft | 96 kts | 76° |
| 2026-04-14 14:55 | 61.06997 | 79.04373 | 3010 ft | 96 kts | 76° |
| 2026-04-14 14:56 | 61.07092 | 79.07097 | 3010 ft | 96 kts | 76° |
| 2026-04-14 14:56 | 61.07140 | 79.08485 | 3010 ft | 96 kts | 76° |
| 2026-04-14 14:56 | 61.07187 | 79.09831 | 3011 ft | 96 kts | 75° |
| 2026-04-14 14:57 | 61.07235 | 79.11211 | 3011 ft | 95 kts | 76° |
| 2026-04-14 14:57 | 61.07285 | 79.12609 | 3011 ft | 96 kts | 76° |
| 2026-04-14 14:57 | 61.07331 | 79.13985 | 3011 ft | 96 kts | 76° |
| 2026-04-14 14:57 | 61.07380 | 79.15369 | 3011 ft | 95 kts | 75° |
| 2026-04-14 14:58 | 61.07429 | 79.16753 | 3011 ft | 95 kts | 75° |
| 2026-04-14 14:58 | 61.07477 | 79.18130 | 3012 ft | 95 kts | 76° |
| 2026-04-14 14:58 | 61.07526 | 79.19515 | 3012 ft | 95 kts | 75° |
| 2026-04-14 14:58 | 61.07573 | 79.20887 | 3012 ft | 95 kts | 75° |
| 2026-04-14 14:59 | 61.07621 | 79.22259 | 3012 ft | 95 kts | 76° |
| 2026-04-14 14:59 | 61.07671 | 79.23651 | 3012 ft | 95 kts | 75° |
| 2026-04-14 14:59 | 61.07718 | 79.25019 | 3013 ft | 95 kts | 76° |
| 2026-04-14 14:59 | 61.07767 | 79.26388 | 3013 ft | 95 kts | 75° |
| 2026-04-14 15:00 | 61.07817 | 79.27786 | 3013 ft | 95 kts | 75° |
| 2026-04-14 15:00 | 61.07865 | 79.29151 | 3012 ft | 95 kts | 76° |
| 2026-04-14 15:00 | 61.07915 | 79.30537 | 3012 ft | 95 kts | 75° |
| 2026-04-14 15:00 | 61.07964 | 79.31903 | 3012 ft | 95 kts | 75° |
| 2026-04-14 15:01 | 61.08013 | 79.33282 | 3012 ft | 95 kts | 75° |
| 2026-04-14 15:01 | 61.08062 | 79.34662 | 3012 ft | 95 kts | 75° |
| 2026-04-14 15:01 | 61.08111 | 79.36053 | 3012 ft | 95 kts | 75° |
| 2026-04-14 15:01 | 61.08160 | 79.37436 | 3012 ft | 95 kts | 75° |
| 2026-04-14 15:02 | 61.08210 | 79.38811 | 3011 ft | 95 kts | 75° |
| 2026-04-14 15:02 | 61.08258 | 79.40194 | 3011 ft | 95 kts | 75° |
| 2026-04-14 15:02 | 61.08307 | 79.41576 | 3011 ft | 95 kts | 75° |
| 2026-04-14 15:02 | 61.08356 | 79.42942 | 3011 ft | 95 kts | 75° |
| 2026-04-14 15:03 | 61.08404 | 79.44312 | 3011 ft | 95 kts | 75° |
| 2026-04-14 15:03 | 61.08454 | 79.45697 | 3011 ft | 95 kts | 75° |
| 2026-04-14 15:03 | 61.08504 | 79.47076 | 3011 ft | 95 kts | 75° |
| 2026-04-14 15:03 | 61.08554 | 79.48436 | 3011 ft | 95 kts | 75° |
| 2026-04-14 15:04 | 61.08603 | 79.49811 | 3011 ft | 95 kts | 75° |
| 2026-04-14 15:04 | 61.08654 | 79.51203 | 3011 ft | 95 kts | 75° |
| 2026-04-14 15:04 | 61.08703 | 79.52563 | 3011 ft | 95 kts | 75° |
| 2026-04-14 15:04 | 61.08753 | 79.53949 | 3011 ft | 95 kts | 75° |
| 2026-04-14 15:05 | 61.08804 | 79.55342 | 3011 ft | 95 kts | 75° |
| 2026-04-14 15:05 | 61.08854 | 79.56718 | 3011 ft | 95 kts | 75° |
| 2026-04-14 15:05 | 61.08905 | 79.58083 | 3011 ft | 95 kts | 75° |
| 2026-04-14 15:05 | 61.08957 | 79.59464 | 3011 ft | 95 kts | 75° |
| 2026-04-14 15:06 | 61.09008 | 79.60843 | 3011 ft | 95 kts | 75° |
| 2026-04-14 15:06 | 61.09063 | 79.62207 | 3011 ft | 95 kts | 74° |
| 2026-04-14 15:06 | 61.09126 | 79.63578 | 3011 ft | 95 kts | 74° |
| 2026-04-14 15:06 | 61.09189 | 79.64947 | 3011 ft | 95 kts | 74° |
| 2026-04-14 15:07 | 61.09251 | 79.66317 | 3011 ft | 95 kts | 75° |
| 2026-04-14 15:07 | 61.09314 | 79.67682 | 3012 ft | 95 kts | 75° |
| 2026-04-14 15:07 | 61.09379 | 79.69064 | 3012 ft | 95 kts | 75° |
| 2026-04-14 15:07 | 61.09442 | 79.70423 | 3012 ft | 95 kts | 75° |
| 2026-04-14 15:08 | 61.09504 | 79.71796 | 3011 ft | 95 kts | 75° |
| 2026-04-14 15:08 | 61.09558 | 79.73187 | 3012 ft | 96 kts | 75° |
| 2026-04-14 15:08 | 61.09539 | 79.74572 | 3011 ft | 100 kts | 91° |
| 2026-04-14 15:08 | 61.09348 | 79.75986 | 3012 ft | 102 kts | 97° |
| 2026-04-14 15:09 | 61.09130 | 79.77415 | 3011 ft | 102 kts | 98° |
| 2026-04-14 15:09 | 61.08914 | 79.78818 | 3011 ft | 102 kts | 98° |
| 2026-04-14 15:09 | 61.08657 | 79.80200 | 3011 ft | 104 kts | 102° |
| 2026-04-14 15:09 | 61.08379 | 79.81598 | 3010 ft | 104 kts | 102° |
| 2026-04-14 15:10 | 61.08102 | 79.82984 | 3010 ft | 104 kts | 102° |
| 2026-04-14 15:10 | 61.07824 | 79.84369 | 3009 ft | 104 kts | 102° |
| 2026-04-14 15:10 | 61.07546 | 79.85757 | 3009 ft | 104 kts | 103° |
| 2026-04-14 15:10 | 61.07272 | 79.87124 | 3009 ft | 104 kts | 103° |
| 2026-04-14 15:11 | 61.06993 | 79.88514 | 3009 ft | 104 kts | 103° |
| 2026-04-14 15:11 | 61.06719 | 79.89881 | 3009 ft | 104 kts | 102° |
| 2026-04-14 15:11 | 61.06438 | 79.91282 | 3009 ft | 104 kts | 103° |
| 2026-04-14 15:11 | 61.06177 | 79.92670 | 3008 ft | 103 kts | 98° |
| 2026-04-14 15:12 | 61.05990 | 79.94082 | 3008 ft | 101 kts | 92° |
| 2026-04-14 15:12 | 61.05835 | 79.95472 | 3007 ft | 98 kts | 92° |
| 2026-04-14 15:12 | 61.05682 | 79.96849 | 2972 ft | 99 kts | 92° |
| 2026-04-14 15:12 | 61.05525 | 79.98291 | 2891 ft | 103 kts | 92° |
| 2026-04-14 15:13 | 61.05368 | 79.99751 | 2809 ft | 105 kts | 93° |
| 2026-04-14 15:13 | 61.05212 | 80.01196 | 2707 ft | 102 kts | 92° |
| 2026-04-14 15:13 | 61.05119 | 80.02580 | 2599 ft | 98 kts | 85° |
| 2026-04-14 15:13 | 61.05055 | 80.04044 | 2486 ft | 97 kts | 85° |
| 2026-04-14 15:14 | 61.04996 | 80.05406 | 2406 ft | 95 kts | 84° |
| 2026-04-14 15:14 | 61.04940 | 80.06619 | 2333 ft | 93 kts | 84° |
| 2026-04-14 15:14 | 61.04932 | 80.06796 | 2355 ft | 94 kts | 92° |
| 2026-04-14 15:14 | 61.04932 | 80.07573 | 2314 ft | 99 kts | 86° |
| 2026-04-14 15:15 | 61.04987 | 80.08982 | 2229 ft | 96 kts | 85° |
| 2026-04-14 15:15 | 61.05050 | 80.10323 | 2144 ft | 93 kts | 84° |
| 2026-04-14 15:15 | 61.05117 | 80.11646 | 2060 ft | 90 kts | 84° |
| 2026-04-14 15:15 | 61.05186 | 80.12929 | 1978 ft | 89 kts | 84° |
| 2026-04-14 15:16 | 61.05258 | 80.14199 | 1896 ft | 89 kts | 84° |
| 2026-04-14 15:16 | 61.05336 | 80.15508 | 1781 ft | 94 kts | 84° |
| 2026-04-14 15:16 | 61.05412 | 80.16826 | 1645 ft | 91 kts | 84° |
| 2026-04-14 15:16 | 61.05488 | 80.18095 | 1508 ft | 86 kts | 84° |
| 2026-04-14 15:17 | 61.05579 | 80.19289 | 1368 ft | 81 kts | 69° |
| 2026-04-14 15:17 | 61.05941 | 80.20050 | 1284 ft | 72 kts | 27° |
| 2026-04-14 15:17 | 61.06416 | 80.20463 | 1254 ft | 76 kts | 17° |
| 2026-04-14 15:17 | 61.06946 | 80.20809 | 1169 ft | 83 kts | 17° |
| 2026-04-14 15:18 | 61.07495 | 80.21262 | 1019 ft | 83 kts | 24° |
| 2026-04-14 15:18 | 61.08001 | 80.21695 | 883 ft | 75 kts | 23° |
| 2026-04-14 15:18 | 61.08471 | 80.22127 | 747 ft | 72 kts | 21° |
| 2026-04-14 15:18 | 61.08902 | 80.22566 | 601 ft | 65 kts | 32° |
| 2026-04-14 15:19 | 61.09267 | 80.23081 | 441 ft | 63 kts | 36° |
| 2026-04-14 15:19 | 61.09609 | 80.23536 | 316 ft | 57 kts | 34° |
| 2026-04-14 15:19 | 61.09945 | 80.23998 | 250 ft | 57 kts | 33° |
| 2026-04-14 15:19 | 61.10277 | 80.24456 | 258 ft | 60 kts | 35° |
| 2026-04-14 15:20 | 61.10603 | 80.24925 | 418 ft | 71 kts | 23° |
| 2026-04-14 15:20 | 61.11088 | 80.24891 | 605 ft | 75 kts | 321° |
| 2026-04-14 15:20 | 61.11129 | 80.23907 | 728 ft | 75 kts | 231° |
| 2026-04-14 15:20 | 61.10648 | 80.23467 | 740 ft | 82 kts | 190° |
| 2026-04-14 15:21 | 61.10086 | 80.23295 | 688 ft | 78 kts | 187° |
| 2026-04-14 15:21 | 61.09553 | 80.23164 | 637 ft | 70 kts | 187° |
| 2026-04-14 15:21 | 61.09129 | 80.23317 | 546 ft | 66 kts | 114° |
| 2026-04-14 15:21 | 61.09348 | 80.24049 | 445 ft | 63 kts | 36° |
| 2026-04-14 15:22 | 61.09725 | 80.24509 | 341 ft | 62 kts | 25° |
| 2026-04-14 15:22 | 61.10143 | 80.24760 | 188 ft | 63 kts | 16° |
| 2026-04-14 15:22 | 61.10475 | 80.24916 | 165 ft | 26 kts | 14° |
| 2026-04-14 15:22 | 61.10601 | 80.24974 | 165 ft | 9 kts | 16° |
| 2026-04-14 15:23 | 61.10615 | 80.24947 | 165 ft | 4 kts | 210° |
| 2026-04-14 15:23 | 61.10585 | 80.24944 | 165 ft | 2 kts | 174° |
| 2026-04-14 15:23 | 61.10531 | 80.24928 | 165 ft | 12 kts | 197° |
| 2026-04-14 15:23 | 61.10461 | 80.24884 | 165 ft | 8 kts | 196° |
| 2026-04-14 15:24 | 61.10427 | 80.24868 | 165 ft | 2 kts | 178° |
| 2026-04-14 15:24 | 61.10396 | 80.24849 | 165 ft | 6 kts | 206° |
| 2026-04-14 15:24 | 61.10371 | 80.24827 | 165 ft | 6 kts | 204° |
| 2026-04-14 15:24 | 61.10332 | 80.24792 | 165 ft | 2 kts | 213° |
| 2026-04-14 15:25 | 61.10318 | 80.24729 | 165 ft | 7 kts | 242° |
| 2026-04-14 15:25 | 61.10309 | 80.24656 | 163 ft | 6 kts | 283° |
| 2026-04-14 15:25 | 61.10326 | 80.24585 | 162 ft | 4 kts | 347° |
| 2026-04-14 15:25 | 61.10339 | 80.24607 | 162 ft | 0 kts | 85° |